Why, Arizona
Current Conditions -  °F | °C
As of 5:56 AM on Friday 24 Oct 2014 (Local Time) from KGXF Reporting Station
Clear Clear  
Wind Chill: 17°   Ceiling: Unl
Heat Index: 17°   Visibility: 10mi
Dew Point:   Wind: 5mph
Humidity: 58%   Direction: 100°E
Pressure: 30"   Gusts: NA
Location:  32.5298°N, 112.879°W
Report Text: KGXF 241256Z AUTO 10004KT 10SM CLR 17/09 A3000 RMK AO2 SLPNO T01720088
Loading
Personal Weather Stations






























Interactive Weather Map
Tropical Storm Tracking
New forecast layout! Learn more

10-Day Weather Forecast

Advertisements
Track Severe Weather on mobile